EDW12R LSZH-LEMH
Flight info
| Callsign | EDW12R |
|---|---|
| Flight time | 1h 12m |
| Altitude | 38000 |
| Route | VEBIT1Y VEBIT T50 ROTOS Z669 ULMES DCT VADAR DCT GEVEA DCT INCUS DCT BALSI DCT RETNO DCT TUPOX DCT MTG DCT DIVKO DCT VATIR DCT PIVUS DCT BODEQ DCT VERSO DCT TOSNU L16 SARGO SARGO6F |
| Aircraft | A320/M-VGDW/C |
Departure
| Time | 2026-04-26 12:46 |
|---|---|
| Airport | Zürich Airport (LSZH) |
Arrival
| Time | 2026-04-26 13:58 |
|---|---|
| Airport | Menorca Airport (LEMH) |
| Time | Latitude | Longitude | Altitude | Speed | Heading |
|---|---|---|---|---|---|
| 2026-04-26 12:20 | 47.46193 | 8.55188 | 1397 ft | 0 kts | 186° |
| 2026-04-26 12:29 | 47.46206 | 8.55189 | 1404 ft | 2 kts | 180° |
| 2026-04-26 12:29 | 47.46222 | 8.55189 | 1401 ft | 2 kts | 175° |
| 2026-04-26 12:29 | 47.46254 | 8.55177 | 1406 ft | 2 kts | 151° |
| 2026-04-26 12:30 | 47.46267 | 8.55163 | 1401 ft | 2 kts | 133° |
| 2026-04-26 12:30 | 47.46277 | 8.55143 | 1403 ft | 2 kts | 113° |
| 2026-04-26 12:30 | 47.46282 | 8.55120 | 1408 ft | 2 kts | 100° |
| 2026-04-26 12:31 | 47.46283 | 8.55110 | 1407 ft | 0 kts | 97° |
| 2026-04-26 12:31 | 47.46282 | 8.55128 | 1403 ft | 5 kts | 95° |
| 2026-04-26 12:32 | 47.46277 | 8.55216 | 1399 ft | 12 kts | 95° |
| 2026-04-26 12:32 | 47.46266 | 8.55375 | 1404 ft | 18 kts | 95° |
| 2026-04-26 12:32 | 47.46244 | 8.55586 | 1397 ft | 7 kts | 86° |
| 2026-04-26 12:33 | 47.46245 | 8.55680 | 1397 ft | 11 kts | 97° |
| 2026-04-26 12:33 | 47.46233 | 8.55835 | 1397 ft | 19 kts | 95° |
| 2026-04-26 12:33 | 47.46189 | 8.56027 | 1397 ft | 22 kts | 134° |
| 2026-04-26 12:33 | 47.46069 | 8.56190 | 1400 ft | 23 kts | 136° |
| 2026-04-26 12:34 | 47.45958 | 8.56338 | 1401 ft | 20 kts | 139° |
| 2026-04-26 12:34 | 47.45873 | 8.56453 | 1406 ft | 13 kts | 137° |
| 2026-04-26 12:34 | 47.45819 | 8.56529 | 1402 ft | 8 kts | 131° |
| 2026-04-26 12:34 | 47.45799 | 8.56607 | 1400 ft | 8 kts | 99° |
| 2026-04-26 12:35 | 47.45793 | 8.56669 | 1404 ft | 4 kts | 96° |
| 2026-04-26 12:35 | 47.45791 | 8.56698 | 1399 ft | 1 kts | 96° |
| 2026-04-26 12:35 | 47.45791 | 8.56699 | 1405 ft | 0 kts | 96° |
| 2026-04-26 12:36 | 47.45791 | 8.56700 | 1405 ft | 1 kts | 96° |
| 2026-04-26 12:36 | 47.45788 | 8.56744 | 1402 ft | 9 kts | 96° |
| 2026-04-26 12:36 | 47.45783 | 8.56807 | 1397 ft | 0 kts | 96° |
| 2026-04-26 12:37 | 47.45782 | 8.56824 | 1397 ft | 3 kts | 96° |
| 2026-04-26 12:37 | 47.45782 | 8.56829 | 1397 ft | 0 kts | 96° |
| 2026-04-26 12:39 | 47.45781 | 8.56838 | 1397 ft | 6 kts | 96° |
| 2026-04-26 12:39 | 47.45776 | 8.56920 | 1402 ft | 7 kts | 95° |
| 2026-04-26 12:40 | 47.45774 | 8.56943 | 1397 ft | 0 kts | 97° |
| 2026-04-26 12:42 | 47.45773 | 8.56951 | 1397 ft | 3 kts | 98° |
| 2026-04-26 12:42 | 47.45745 | 8.57020 | 1400 ft | 9 kts | 143° |
| 2026-04-26 12:43 | 47.45696 | 8.57030 | 1400 ft | 6 kts | 184° |
| 2026-04-26 12:43 | 47.45670 | 8.57014 | 1403 ft | 4 kts | 238° |
| 2026-04-26 12:43 | 47.45665 | 8.56981 | 1398 ft | 2 kts | 265° |
| 2026-04-26 12:43 | 47.45666 | 8.56966 | 1400 ft | 0 kts | 275° |
| 2026-04-26 12:45 | 47.45673 | 8.56859 | 1401 ft | 34 kts | 276° |
| 2026-04-26 12:45 | 47.45716 | 8.56237 | 1404 ft | 88 kts | 276° |
| 2026-04-26 12:45 | 47.45808 | 8.55080 | 1408 ft | 136 kts | 279° |
| 2026-04-26 12:46 | 47.45909 | 8.53606 | 1717 ft | 146 kts | 278° |
| 2026-04-26 12:46 | 47.46023 | 8.52160 | 2279 ft | 137 kts | 276° |
| 2026-04-26 12:46 | 47.45995 | 8.50784 | 2816 ft | 135 kts | 261° |
| 2026-04-26 12:46 | 47.45659 | 8.49410 | 3087 ft | 151 kts | 242° |
| 2026-04-26 12:47 | 47.44992 | 8.48135 | 3416 ft | 167 kts | 224° |
| 2026-04-26 12:47 | 47.44225 | 8.46742 | 3749 ft | 192 kts | 236° |
| 2026-04-26 12:47 | 47.43583 | 8.44861 | 4095 ft | 223 kts | 244° |
| 2026-04-26 12:47 | 47.42832 | 8.42751 | 4626 ft | 246 kts | 238° |
| 2026-04-26 12:48 | 47.41859 | 8.40502 | 5028 ft | 276 kts | 235° |
| 2026-04-26 12:48 | 47.40708 | 8.38044 | 5424 ft | 303 kts | 235° |
| 2026-04-26 12:48 | 47.39509 | 8.35384 | 5943 ft | 319 kts | 236° |
| 2026-04-26 12:48 | 47.38308 | 8.32520 | 6562 ft | 338 kts | 238° |
| 2026-04-26 12:49 | 47.37104 | 8.29436 | 7104 ft | 354 kts | 240° |
| 2026-04-26 12:49 | 47.35919 | 8.26229 | 8074 ft | 351 kts | 242° |
| 2026-04-26 12:49 | 47.34796 | 8.23090 | 9182 ft | 349 kts | 242° |
| 2026-04-26 12:49 | 47.33663 | 8.19853 | 9612 ft | 363 kts | 243° |
| 2026-04-26 12:50 | 47.32494 | 8.16510 | 10257 ft | 368 kts | 243° |
| 2026-04-26 12:50 | 47.31312 | 8.13149 | 10976 ft | 371 kts | 243° |
| 2026-04-26 12:50 | 47.30104 | 8.09730 | 11453 ft | 382 kts | 243° |
| 2026-04-26 12:50 | 47.28881 | 8.06274 | 12035 ft | 387 kts | 243° |
| 2026-04-26 12:51 | 47.27683 | 8.02704 | 12761 ft | 390 kts | 245° |
| 2026-04-26 12:51 | 47.26543 | 7.99059 | 13406 ft | 393 kts | 246° |
| 2026-04-26 12:51 | 47.25442 | 7.95369 | 14095 ft | 395 kts | 247° |
| 2026-04-26 12:51 | 47.24358 | 7.91627 | 14693 ft | 398 kts | 248° |
| 2026-04-26 12:52 | 47.23286 | 7.87864 | 15325 ft | 400 kts | 248° |
| 2026-04-26 12:52 | 47.22216 | 7.84074 | 15877 ft | 403 kts | 249° |
| 2026-04-26 12:52 | 47.21147 | 7.80249 | 16410 ft | 405 kts | 249° |
| 2026-04-26 12:52 | 47.19993 | 7.76449 | 16948 ft | 409 kts | 243° |
| 2026-04-26 12:53 | 47.18521 | 7.72848 | 17454 ft | 413 kts | 238° |
| 2026-04-26 12:53 | 47.16919 | 7.69386 | 17975 ft | 416 kts | 236° |
| 2026-04-26 12:53 | 47.15221 | 7.65926 | 18497 ft | 419 kts | 235° |
| 2026-04-26 12:53 | 47.13471 | 7.62490 | 18944 ft | 422 kts | 234° |
| 2026-04-26 12:54 | 47.11680 | 7.59065 | 19384 ft | 424 kts | 233° |
| 2026-04-26 12:54 | 47.09861 | 7.55641 | 19834 ft | 426 kts | 233° |
| 2026-04-26 12:54 | 47.08020 | 7.52213 | 20213 ft | 430 kts | 233° |
| 2026-04-26 12:54 | 47.06156 | 7.48764 | 20651 ft | 432 kts | 233° |
| 2026-04-26 12:55 | 47.04279 | 7.45308 | 21005 ft | 435 kts | 233° |
| 2026-04-26 12:55 | 47.02384 | 7.41838 | 21385 ft | 437 kts | 233° |
| 2026-04-26 12:55 | 47.00479 | 7.38358 | 21848 ft | 438 kts | 233° |
| 2026-04-26 12:55 | 46.98588 | 7.34912 | 22181 ft | 442 kts | 233° |
| 2026-04-26 12:56 | 46.96659 | 7.31393 | 22522 ft | 445 kts | 233° |
| 2026-04-26 12:56 | 46.94719 | 7.27857 | 22937 ft | 446 kts | 233° |
| 2026-04-26 12:56 | 46.92764 | 7.24298 | 23320 ft | 448 kts | 233° |
| 2026-04-26 12:56 | 46.90814 | 7.20748 | 23658 ft | 451 kts | 233° |
| 2026-04-26 12:57 | 46.88844 | 7.17167 | 23968 ft | 453 kts | 233° |
| 2026-04-26 12:57 | 46.86866 | 7.13570 | 24297 ft | 455 kts | 233° |
| 2026-04-26 12:57 | 46.84879 | 7.09963 | 24596 ft | 457 kts | 233° |
| 2026-04-26 12:58 | 46.80908 | 7.02761 | 25201 ft | 460 kts | 232° |
| 2026-04-26 12:58 | 46.78894 | 6.99114 | 25495 ft | 462 kts | 232° |
| 2026-04-26 12:58 | 46.76875 | 6.95466 | 25784 ft | 464 kts | 232° |
| 2026-04-26 12:58 | 46.74841 | 6.91794 | 26103 ft | 465 kts | 232° |
| 2026-04-26 12:59 | 46.72803 | 6.88116 | 26377 ft | 467 kts | 232° |
| 2026-04-26 12:59 | 46.70758 | 6.84427 | 26691 ft | 468 kts | 232° |
| 2026-04-26 12:59 | 46.68712 | 6.80746 | 27109 ft | 467 kts | 232° |
| 2026-04-26 12:59 | 46.66626 | 6.77133 | 27533 ft | 465 kts | 230° |
| 2026-04-26 13:00 | 46.64480 | 6.73616 | 27943 ft | 464 kts | 229° |
| 2026-04-26 13:00 | 46.62339 | 6.70196 | 28329 ft | 463 kts | 229° |
| 2026-04-26 13:00 | 46.60154 | 6.66755 | 28728 ft | 462 kts | 228° |
| 2026-04-26 13:00 | 46.57966 | 6.63338 | 29147 ft | 461 kts | 228° |
| 2026-04-26 13:01 | 46.55781 | 6.59938 | 29555 ft | 460 kts | 228° |
| 2026-04-26 13:01 | 46.53598 | 6.56555 | 29965 ft | 459 kts | 228° |
| 2026-04-26 13:01 | 46.51418 | 6.53182 | 30343 ft | 458 kts | 228° |
| 2026-04-26 13:01 | 46.49240 | 6.49820 | 30665 ft | 457 kts | 228° |
| 2026-04-26 13:02 | 46.47065 | 6.46466 | 30978 ft | 456 kts | 228° |
| 2026-04-26 13:02 | 46.44921 | 6.43165 | 31286 ft | 455 kts | 228° |
| 2026-04-26 13:02 | 46.42756 | 6.39835 | 31597 ft | 454 kts | 228° |
| 2026-04-26 13:02 | 46.40589 | 6.36504 | 31918 ft | 453 kts | 228° |
| 2026-04-26 13:03 | 46.38431 | 6.33190 | 32224 ft | 452 kts | 228° |
| 2026-04-26 13:03 | 46.36276 | 6.29883 | 32539 ft | 451 kts | 228° |
| 2026-04-26 13:03 | 46.34123 | 6.26583 | 32854 ft | 450 kts | 228° |
| 2026-04-26 13:03 | 46.31974 | 6.23293 | 33162 ft | 449 kts | 228° |
| 2026-04-26 13:04 | 46.29831 | 6.20015 | 33463 ft | 449 kts | 228° |
| 2026-04-26 13:04 | 46.27664 | 6.16763 | 33734 ft | 449 kts | 223° |
| 2026-04-26 13:04 | 46.25126 | 6.14247 | 34019 ft | 452 kts | 206° |
| 2026-04-26 13:04 | 46.22132 | 6.12785 | 34153 ft | 458 kts | 195° |
| 2026-04-26 13:05 | 46.15803 | 6.11011 | 34183 ft | 470 kts | 191° |
| 2026-04-26 13:05 | 46.09290 | 6.09544 | 34432 ft | 474 kts | 190° |
| 2026-04-26 13:06 | 46.06032 | 6.08849 | 34702 ft | 473 kts | 190° |
| 2026-04-26 13:06 | 46.02779 | 6.08160 | 34939 ft | 473 kts | 190° |
| 2026-04-26 13:06 | 45.99567 | 6.07479 | 35179 ft | 472 kts | 190° |
| 2026-04-26 13:06 | 45.96326 | 6.06785 | 35418 ft | 471 kts | 191° |
| 2026-04-26 13:07 | 45.93086 | 6.06085 | 35660 ft | 470 kts | 191° |
| 2026-04-26 13:07 | 45.89850 | 6.05377 | 35874 ft | 470 kts | 191° |
| 2026-04-26 13:07 | 45.86627 | 6.04666 | 36083 ft | 470 kts | 191° |
| 2026-04-26 13:07 | 45.83382 | 6.03951 | 36293 ft | 470 kts | 191° |
| 2026-04-26 13:08 | 45.80153 | 6.03241 | 36514 ft | 470 kts | 191° |
| 2026-04-26 13:08 | 45.76924 | 6.02532 | 36736 ft | 469 kts | 191° |
| 2026-04-26 13:08 | 45.73691 | 6.01820 | 36949 ft | 469 kts | 191° |
| 2026-04-26 13:08 | 45.70510 | 6.01120 | 37150 ft | 469 kts | 191° |
| 2026-04-26 13:09 | 45.67285 | 6.00410 | 37342 ft | 469 kts | 191° |
| 2026-04-26 13:09 | 45.64055 | 5.99698 | 37523 ft | 470 kts | 191° |
| 2026-04-26 13:09 | 45.60825 | 5.98985 | 37718 ft | 470 kts | 191° |
| 2026-04-26 13:09 | 45.57593 | 5.98271 | 37922 ft | 469 kts | 191° |
| 2026-04-26 13:10 | 45.54360 | 5.97557 | 38057 ft | 471 kts | 191° |
| 2026-04-26 13:10 | 45.51114 | 5.96827 | 38103 ft | 474 kts | 192° |
| 2026-04-26 13:10 | 45.44642 | 5.95049 | 38117 ft | 480 kts | 194° |
| 2026-04-26 13:11 | 45.38114 | 5.93078 | 38122 ft | 480 kts | 194° |
| 2026-04-26 13:11 | 45.31583 | 5.91067 | 38136 ft | 479 kts | 194° |
| 2026-04-26 13:12 | 45.25054 | 5.89046 | 38132 ft | 480 kts | 194° |
| 2026-04-26 13:12 | 45.18529 | 5.87020 | 38140 ft | 480 kts | 194° |
| 2026-04-26 13:13 | 45.12045 | 5.85012 | 38133 ft | 480 kts | 194° |
| 2026-04-26 13:13 | 45.05515 | 5.82995 | 38127 ft | 480 kts | 194° |
| 2026-04-26 13:14 | 44.98991 | 5.80982 | 38129 ft | 480 kts | 194° |
| 2026-04-26 13:14 | 44.92464 | 5.78973 | 38122 ft | 480 kts | 194° |
| 2026-04-26 13:15 | 44.85945 | 5.76971 | 38116 ft | 480 kts | 194° |
| 2026-04-26 13:15 | 44.80525 | 5.75310 | 38118 ft | 480 kts | 194° |
| 2026-04-26 13:16 | 44.72953 | 5.72993 | 38106 ft | 479 kts | 194° |
| 2026-04-26 13:16 | 44.66436 | 5.71004 | 38109 ft | 479 kts | 194° |
| 2026-04-26 13:17 | 44.56704 | 5.68042 | 38097 ft | 479 kts | 194° |
| 2026-04-26 13:18 | 44.46932 | 5.65076 | 38098 ft | 479 kts | 194° |
| 2026-04-26 13:19 | 44.37257 | 5.61615 | 38105 ft | 477 kts | 201° |
| 2026-04-26 13:19 | 44.31025 | 5.58455 | 38102 ft | 477 kts | 202° |
| 2026-04-26 13:20 | 44.24874 | 5.55167 | 38105 ft | 476 kts | 203° |
| 2026-04-26 13:20 | 44.18699 | 5.51812 | 38105 ft | 477 kts | 203° |
| 2026-04-26 13:21 | 44.12526 | 5.48445 | 38104 ft | 476 kts | 204° |
| 2026-04-26 13:21 | 44.06352 | 5.45080 | 38099 ft | 476 kts | 203° |
| 2026-04-26 13:22 | 44.00221 | 5.41745 | 38105 ft | 476 kts | 203° |
| 2026-04-26 13:22 | 43.94044 | 5.38398 | 38104 ft | 476 kts | 203° |
| 2026-04-26 13:23 | 43.87872 | 5.35063 | 38100 ft | 476 kts | 203° |
| 2026-04-26 13:23 | 43.81691 | 5.31729 | 38115 ft | 476 kts | 203° |
| 2026-04-26 13:24 | 43.75554 | 5.28426 | 38123 ft | 476 kts | 203° |
| 2026-04-26 13:24 | 43.69378 | 5.25108 | 38122 ft | 476 kts | 203° |
| 2026-04-26 13:25 | 43.63201 | 5.21797 | 38127 ft | 476 kts | 203° |
| 2026-04-26 13:25 | 43.57020 | 5.18490 | 38129 ft | 476 kts | 203° |
| 2026-04-26 13:26 | 43.50841 | 5.15191 | 38131 ft | 476 kts | 203° |
| 2026-04-26 13:26 | 43.44703 | 5.11919 | 38130 ft | 476 kts | 203° |
| 2026-04-26 13:27 | 43.38714 | 5.08109 | 38135 ft | 473 kts | 212° |
| 2026-04-26 13:27 | 43.33140 | 5.03300 | 38130 ft | 473 kts | 215° |
| 2026-04-26 13:28 | 43.27671 | 4.98297 | 38124 ft | 472 kts | 216° |
| 2026-04-26 13:28 | 43.22271 | 4.93266 | 38126 ft | 472 kts | 216° |
| 2026-04-26 13:29 | 43.16844 | 4.88187 | 38127 ft | 472 kts | 216° |
| 2026-04-26 13:29 | 43.11421 | 4.83112 | 38127 ft | 472 kts | 216° |
| 2026-04-26 13:30 | 43.05916 | 4.78190 | 38124 ft | 473 kts | 213° |
| 2026-04-26 13:30 | 43.00259 | 4.73701 | 38128 ft | 474 kts | 211° |
| 2026-04-26 13:31 | 42.94515 | 4.69291 | 38128 ft | 474 kts | 211° |
| 2026-04-26 13:31 | 42.88748 | 4.64911 | 38130 ft | 474 kts | 211° |
| 2026-04-26 13:32 | 42.82976 | 4.60547 | 38131 ft | 474 kts | 211° |
| 2026-04-26 13:32 | 42.78179 | 4.56931 | 38132 ft | 474 kts | 211° |
| 2026-04-26 13:33 | 42.71464 | 4.51883 | 38128 ft | 475 kts | 211° |
| 2026-04-26 13:33 | 42.65688 | 4.47550 | 38129 ft | 474 kts | 211° |
| 2026-04-26 13:34 | 42.60882 | 4.43953 | 38131 ft | 475 kts | 211° |
| 2026-04-26 13:34 | 42.55094 | 4.39627 | 38131 ft | 475 kts | 211° |
| 2026-04-26 13:35 | 42.48367 | 4.34613 | 38130 ft | 475 kts | 211° |
| 2026-04-26 13:35 | 42.42574 | 4.30304 | 38133 ft | 475 kts | 210° |
| 2026-04-26 13:36 | 42.37756 | 4.26729 | 38135 ft | 475 kts | 210° |
| 2026-04-26 13:36 | 42.31959 | 4.22435 | 38135 ft | 475 kts | 210° |
| 2026-04-26 13:37 | 42.26156 | 4.18144 | 38137 ft | 475 kts | 210° |
| 2026-04-26 13:37 | 42.20351 | 4.13860 | 38136 ft | 475 kts | 210° |
| 2026-04-26 13:38 | 42.14585 | 4.09616 | 38137 ft | 475 kts | 210° |
| 2026-04-26 13:38 | 42.08775 | 4.05351 | 38137 ft | 475 kts | 210° |
| 2026-04-26 13:39 | 42.02966 | 4.01098 | 38138 ft | 476 kts | 210° |
| 2026-04-26 13:39 | 41.97152 | 3.96850 | 38141 ft | 476 kts | 210° |
| 2026-04-26 13:40 | 41.91032 | 3.93649 | 38152 ft | 479 kts | 195° |
| 2026-04-26 13:40 | 41.84529 | 3.91727 | 38083 ft | 480 kts | 193° |
| 2026-04-26 13:40 | 41.81239 | 3.90878 | 37776 ft | 482 kts | 192° |
| 2026-04-26 13:41 | 41.77939 | 3.90067 | 37446 ft | 482 kts | 192° |
| 2026-04-26 13:41 | 41.74667 | 3.89288 | 37117 ft | 474 kts | 191° |
| 2026-04-26 13:41 | 41.71382 | 3.88520 | 36798 ft | 481 kts | 191° |
| 2026-04-26 13:41 | 41.68128 | 3.87769 | 36491 ft | 468 kts | 191° |
| 2026-04-26 13:42 | 41.64946 | 3.87040 | 36171 ft | 461 kts | 191° |
| 2026-04-26 13:42 | 41.61788 | 3.86317 | 35865 ft | 462 kts | 191° |
| 2026-04-26 13:42 | 41.58642 | 3.85596 | 35564 ft | 467 kts | 191° |
| 2026-04-26 13:42 | 41.55424 | 3.84859 | 35261 ft | 472 kts | 191° |
| 2026-04-26 13:43 | 41.52178 | 3.84115 | 34967 ft | 474 kts | 191° |
| 2026-04-26 13:43 | 41.48924 | 3.83370 | 34670 ft | 474 kts | 191° |
| 2026-04-26 13:43 | 41.45677 | 3.82626 | 34386 ft | 473 kts | 191° |
| 2026-04-26 13:43 | 41.42438 | 3.81886 | 34083 ft | 472 kts | 191° |
| 2026-04-26 13:44 | 41.39200 | 3.81146 | 33757 ft | 472 kts | 191° |
| 2026-04-26 13:44 | 41.35955 | 3.80405 | 33429 ft | 474 kts | 191° |
| 2026-04-26 13:44 | 41.32693 | 3.79660 | 33102 ft | 476 kts | 191° |
| 2026-04-26 13:44 | 41.29464 | 3.78924 | 32791 ft | 478 kts | 191° |
| 2026-04-26 13:45 | 41.26182 | 3.78176 | 32475 ft | 479 kts | 191° |
| 2026-04-26 13:45 | 41.22888 | 3.77425 | 32163 ft | 480 kts | 191° |
| 2026-04-26 13:45 | 41.19596 | 3.76677 | 31853 ft | 480 kts | 190° |
| 2026-04-26 13:45 | 41.16263 | 3.76400 | 31560 ft | 482 kts | 176° |
| 2026-04-26 13:46 | 41.12924 | 3.76957 | 31265 ft | 485 kts | 171° |
| 2026-04-26 13:46 | 41.09610 | 3.77834 | 30905 ft | 488 kts | 168° |
| 2026-04-26 13:46 | 41.06283 | 3.78890 | 30356 ft | 493 kts | 166° |
| 2026-04-26 13:46 | 41.02965 | 3.80049 | 29737 ft | 493 kts | 165° |
| 2026-04-26 13:47 | 40.99711 | 3.81224 | 29132 ft | 491 kts | 165° |
| 2026-04-26 13:47 | 40.96413 | 3.82432 | 28538 ft | 492 kts | 165° |
| 2026-04-26 13:47 | 40.93106 | 3.83647 | 27950 ft | 495 kts | 165° |
| 2026-04-26 13:47 | 40.89785 | 3.84867 | 27377 ft | 497 kts | 165° |
| 2026-04-26 13:48 | 40.86450 | 3.86087 | 26812 ft | 498 kts | 165° |
| 2026-04-26 13:48 | 40.83109 | 3.87306 | 26269 ft | 498 kts | 165° |
| 2026-04-26 13:48 | 40.79767 | 3.88521 | 25752 ft | 497 kts | 165° |
| 2026-04-26 13:48 | 40.76497 | 3.89705 | 25252 ft | 492 kts | 165° |
| 2026-04-26 13:49 | 40.73213 | 3.90891 | 24758 ft | 487 kts | 165° |
| 2026-04-26 13:49 | 40.69959 | 3.92063 | 24272 ft | 484 kts | 165° |
| 2026-04-26 13:49 | 40.66714 | 3.93228 | 23811 ft | 482 kts | 165° |
| 2026-04-26 13:49 | 40.63493 | 3.94382 | 23283 ft | 478 kts | 164° |
| 2026-04-26 13:50 | 40.60296 | 3.95525 | 22749 ft | 474 kts | 164° |
| 2026-04-26 13:50 | 40.57124 | 3.96658 | 22247 ft | 470 kts | 164° |
| 2026-04-26 13:50 | 40.53976 | 3.97782 | 21759 ft | 468 kts | 164° |
| 2026-04-26 13:50 | 40.50884 | 3.98885 | 21290 ft | 465 kts | 164° |
| 2026-04-26 13:51 | 40.47773 | 3.99995 | 20841 ft | 462 kts | 164° |
| 2026-04-26 13:51 | 40.44728 | 4.01082 | 20504 ft | 458 kts | 164° |
| 2026-04-26 13:51 | 40.41641 | 4.02182 | 19993 ft | 460 kts | 164° |
| 2026-04-26 13:51 | 40.38575 | 4.03274 | 19494 ft | 454 kts | 164° |
| 2026-04-26 13:52 | 40.35539 | 4.04352 | 18999 ft | 450 kts | 164° |
| 2026-04-26 13:52 | 40.32519 | 4.05423 | 18510 ft | 448 kts | 164° |
| 2026-04-26 13:52 | 40.29516 | 4.06489 | 17884 ft | 447 kts | 164° |
| 2026-04-26 13:52 | 40.26532 | 4.07546 | 17107 ft | 441 kts | 164° |
| 2026-04-26 13:53 | 40.23592 | 4.08585 | 16347 ft | 434 kts | 164° |
| 2026-04-26 13:53 | 40.20691 | 4.09609 | 15612 ft | 430 kts | 164° |
| 2026-04-26 13:53 | 40.17815 | 4.10624 | 14890 ft | 426 kts | 164° |
| 2026-04-26 13:53 | 40.14997 | 4.11617 | 14026 ft | 425 kts | 163° |
| 2026-04-26 13:54 | 40.12259 | 4.12981 | 12811 ft | 418 kts | 149° |
| 2026-04-26 13:54 | 40.09941 | 4.15142 | 11473 ft | 401 kts | 137° |
| 2026-04-26 13:54 | 40.08166 | 4.17852 | 10197 ft | 388 kts | 126° |
| 2026-04-26 13:55 | 40.04661 | 4.22914 | 7472 ft | 368 kts | 144° |
| 2026-04-26 13:55 | 40.03183 | 4.23966 | 6628 ft | 363 kts | 158° |
| 2026-04-26 13:55 | 39.97739 | 4.24215 | 3675 ft | 279 kts | 187° |
| 2026-04-26 13:56 | 39.95995 | 4.23889 | 2813 ft | 234 kts | 188° |
| 2026-04-26 13:56 | 39.94518 | 4.23586 | 2414 ft | 198 kts | 189° |
| 2026-04-26 13:56 | 39.93255 | 4.23312 | 2229 ft | 171 kts | 189° |
| 2026-04-26 13:56 | 39.92105 | 4.23068 | 1718 ft | 168 kts | 189° |
| 2026-04-26 13:57 | 39.90948 | 4.22827 | 1274 ft | 165 kts | 189° |
| 2026-04-26 13:57 | 39.89849 | 4.22590 | 943 ft | 155 kts | 188° |
| 2026-04-26 13:57 | 39.88823 | 4.22376 | 699 ft | 144 kts | 186° |
| 2026-04-26 13:57 | 39.87863 | 4.22180 | 475 ft | 135 kts | 186° |
| 2026-04-26 13:58 | 39.86983 | 4.22007 | 312 ft | 122 kts | 185° |
| 2026-04-26 13:58 | 39.86305 | 4.21880 | 297 ft | 69 kts | 191° |
| 2026-04-26 13:58 | 39.85920 | 4.21796 | 297 ft | 46 kts | 190° |
| 2026-04-26 13:58 | 39.85658 | 4.21752 | 295 ft | 32 kts | 175° |
| 2026-04-26 13:59 | 39.85469 | 4.21819 | 291 ft | 22 kts | 158° |
| 2026-04-26 13:59 | 39.85417 | 4.21910 | 294 ft | 9 kts | 60° |
| 2026-04-26 13:59 | 39.85471 | 4.21940 | 292 ft | 9 kts | 10° |
| 2026-04-26 14:00 | 39.85766 | 4.22003 | 298 ft | 22 kts | 8° |
| 2026-04-26 14:00 | 39.85933 | 4.22034 | 297 ft | 27 kts | 9° |
| 2026-04-26 14:00 | 39.86064 | 4.22061 | 301 ft | 30 kts | 8° |
| 2026-04-26 14:01 | 39.86360 | 4.22127 | 300 ft | 35 kts | 9° |
| 2026-04-26 14:01 | 39.86540 | 4.22232 | 304 ft | 23 kts | 90° |
| 2026-04-26 14:01 | 39.86580 | 4.22346 | 303 ft | 4 kts | 34° |
| 2026-04-26 14:01 | 39.86582 | 4.22377 | 303 ft | 6 kts | 103° |
| 2026-04-26 14:02 | 39.86574 | 4.22432 | 303 ft | 2 kts | 98° |
| 2026-04-26 14:02 | 39.86574 | 4.22433 | 303 ft | 0 kts | 98° |